Time;durP1;ratioP1;P1;durP2;ratioP2;P2;SDS_P1;SDS_P2;PMS_P1;PMS_P2;Temp;Humidity;BMP_temperature;BMP_pressure;BME280_temperature;BME280_humidity;BME280_pressure;Samples;Min_cycle;Max_cycle;Signal;HPM_P1;HPM_P2
2022/12/26 00:09:12;;;;;;;6.68;4.53;;;;;;;22.07;55.67;100865.19;20836967;28;20033;-81
2022/12/26 00:19:15;;;;;;;6.30;4.45;;;;;;;22.05;55.92;100850.44;20850622;28;20385;-82
2022/12/26 00:29:15;;;;;;;4.97;4.03;;;;;;;22.03;55.89;100840.00;20856164;28;20046;-87
2022/12/26 00:39:18;;;;;;;7.32;5.07;;;;;;;22.01;55.56;100834.00;20873772;28;21040;-82
2022/12/26 00:49:18;;;;;;;6.57;4.35;;;;;;;22.01;55.61;100862.16;20872149;28;20056;-82
2022/12/26 00:59:19;;;;;;;6.10;4.47;;;;;;;21.99;55.99;100859.63;20854315;28;20044;-82
2022/12/26 01:09:20;;;;;;;6.15;4.22;;;;;;;21.97;55.48;100839.59;20861807;28;20096;-82
2022/12/26 01:19:23;;;;;;;5.63;4.32;;;;;;;21.93;55.61;100830.25;20891149;28;20037;-82
2022/12/26 01:29:25;;;;;;;6.40;4.70;;;;;;;21.91;55.84;100828.56;20892655;28;20044;-82
2022/12/26 01:39:25;;;;;;;5.70;4.23;;;;;;;21.89;55.57;100837.53;20905696;28;20541;-82
2022/12/26 01:49:38;;;;;;;5.38;4.32;;;;;;;21.87;55.66;100821.84;20894325;28;20081;-83
2022/12/26 01:59:40;;;;;;;6.43;4.07;;;;;;;21.84;55.77;100810.69;20898282;28;20104;-82
2022/12/26 02:09:41;;;;;;;6.00;4.37;;;;;;;21.82;55.58;100805.50;20882688;28;20045;-82
2022/12/26 02:19:51;;;;;;;6.47;4.13;;;;;;;21.81;55.57;100805.63;20885440;28;20049;-84
2022/12/26 02:30:12;;;;;;;5.53;4.05;;;;;;;21.77;55.97;100807.63;20888015;28;20569;-83
2022/12/26 02:41:00;;;;;;;6.18;4.32;;;;;;;21.76;55.71;100792.75;20884354;28;20045;-83
2022/12/26 03:23:09;;;;;;;5.65;4.28;;;;;;;21.71;55.74;100772.00;20879103;28;20048;-91
2022/12/26 04:47:14;;;;;;;5.90;3.95;;;;;;;21.59;55.42;100800.13;20889438;28;20049;-81
2022/12/26 04:57:15;;;;;;;4.88;3.92;;;;;;;21.58;55.88;100773.88;20855669;28;20048;-82
2022/12/26 05:38:35;;;;;;;5.43;4.28;;;;;;;21.65;56.02;100750.56;20863298;28;20049;-82
2022/12/26 05:48:35;;;;;;;6.03;4.27;;;;;;;21.68;55.58;100759.06;20859850;28;20037;-83
2022/12/26 05:58:36;;;;;;;6.07;4.10;;;;;;;21.71;55.95;100779.91;20852809;28;20405;-82
2022/12/26 06:08:43;;;;;;;5.60;4.28;;;;;;;21.74;55.57;100784.97;20874717;28;20033;-81
2022/12/26 06:18:44;;;;;;;5.30;4.05;;;;;;;21.75;55.82;100768.22;20875796;28;20053;-81
2022/12/26 06:28:45;;;;;;;5.95;4.53;;;;;;;21.79;55.32;100760.06;20854549;28;20045;-83
2022/12/26 06:38:47;;;;;;;5.13;4.15;;;;;;;21.80;55.28;100773.16;20852198;28;20046;-87
2022/12/26 06:48:49;;;;;;;6.90;4.60;;;;;;;21.83;55.36;100756.28;20846977;28;20049;-83
2022/12/26 06:59:00;;;;;;;7.10;4.60;;;;;;;21.87;55.83;100770.88;20859344;28;20049;-85
2022/12/26 07:09:05;;;;;;;6.13;4.85;;;;;;;21.90;55.93;100763.59;20858907;28;20041;-84
2022/12/26 07:19:13;;;;;;;9.75;4.97;;;;;;;21.96;56.46;100790.44;20856119;28;20059;-84
2022/12/26 07:29:14;;;;;;;8.20;5.00;;;;;;;22.00;56.40;100789.28;20872171;28;20041;-81
2022/12/26 07:39:15;;;;;;;6.97;4.90;;;;;;;22.02;56.49;100793.50;20840162;28;20041;-83
2022/12/26 07:49:15;;;;;;;8.65;5.10;;;;;;;22.04;56.30;100799.47;20832670;28;20073;-82
2022/12/26 07:59:17;;;;;;;22.97;8.83;;;;;;;22.01;53.16;100799.72;20811581;28;20061;-89
2022/12/26 08:09:18;;;;;;;22.33;9.13;;;;;;;21.97;53.59;100803.53;20854893;28;20286;-84
2022/12/26 08:19:19;;;;;;;15.73;9.10;;;;;;;22.02;53.20;100827.75;20866580;28;20132;-86
2022/12/26 08:29:19;;;;;;;14.52;8.80;;;;;;;22.05;53.73;100826.69;20896567;28;20068;-86
2022/12/26 08:39:19;;;;;;;15.82;9.02;;;;;;;22.05;53.39;100832.78;20891749;28;20159;-86
2022/12/26 08:49:20;;;;;;;15.65;8.77;;;;;;;22.07;53.44;100833.53;20865361;28;20045;-85
2022/12/26 08:59:21;;;;;;;14.80;9.60;;;;;;;22.06;53.29;100839.75;20871423;28;20043;-86
2022/12/26 09:09:21;;;;;;;15.48;9.25;;;;;;;22.06;53.54;100825.75;20900895;28;20499;-94
2022/12/26 09:19:22;;;;;;;18.83;9.38;;;;;;;22.07;53.72;100833.53;20930534;28;20033;-92
2022/12/26 09:29:23;;;;;;;13.55;8.32;;;;;;;22.08;53.72;100837.00;20919264;28;20044;-96
2022/12/26 09:39:23;;;;;;;12.88;8.48;;;;;;;22.09;53.56;100843.13;20920194;28;20045;-92
2022/12/26 09:49:31;;;;;;;13.23;8.20;;;;;;;22.12;53.43;100838.47;20898065;28;20048;-94
2022/12/26 09:59:43;;;;;;;13.90;8.23;;;;;;;22.11;53.44;100836.78;20903083;28;20414;-92
2022/12/26 10:10:21;;;;;;;13.38;7.78;;;;;;;22.09;53.22;100848.41;20914673;28;20482;-94
2022/12/26 10:20:27;;;;;;;19.25;8.10;;;;;;;22.07;53.37;100832.72;20896075;28;20061;-90
2022/12/26 10:30:38;;;;;;;13.05;8.07;;;;;;;22.06;52.73;100817.84;20882880;28;20060;-93
2022/12/26 10:40:47;;;;;;;22.20;9.18;;;;;;;22.00;52.12;100795.38;20918758;28;20064;-93
2022/12/26 10:50:48;;;;;;;32.83;8.73;;;;;;;22.09;52.74;100791.22;20889750;28;20048;-88
2022/12/26 11:00:48;;;;;;;33.35;9.68;;;;;;;22.02;52.05;100785.56;20915945;28;20032;-88
2022/12/26 11:11:19;;;;;;;24.17;9.52;;;;;;;22.06;53.19;100762.44;20902433;28;20047;-82
2022/12/26 11:21:25;;;;;;;25.15;8.98;;;;;;;22.06;53.12;100749.28;20826123;28;20053;-86
2022/12/26 11:31:29;;;;;;;22.20;10.30;;;;;;;22.12;54.29;100753.22;20873507;28;20458;-86
2022/12/26 11:41:39;;;;;;;27.80;10.57;;;;;;;22.16;56.60;100742.31;20886910;28;20064;-85
2022/12/26 11:51:44;;;;;;;24.85;11.13;;;;;;;22.21;58.03;100747.25;20878471;28;20041;-84
2022/12/26 12:01:45;;;;;;;25.77;10.65;;;;;;;22.24;57.29;100733.84;20874575;28;20672;-86
2022/12/26 12:11:56;;;;;;;27.50;11.35;;;;;;;22.30;56.79;100730.75;20893740;28;20037;-86
2022/12/26 12:22:09;;;;;;;22.88;9.88;;;;;;;22.36;58.18;100724.13;20896472;28;20088;-88
2022/12/26 12:32:17;;;;;;;18.67;9.07;;;;;;;22.42;58.37;100731.59;20872209;28;20065;-90
2022/12/26 12:42:41;;;;;;;22.27;10.00;;;;;;;22.48;58.14;100727.66;20844740;28;20162;-88
2022/12/26 12:52:59;;;;;;;16.75;8.43;;;;;;;22.52;58.36;100705.34;20860325;28;20048;-86
2022/12/26 13:03:26;;;;;;;20.13;8.55;;;;;;;22.55;57.70;100698.03;20858665;28;20037;-87
2022/12/26 13:13:34;;;;;;;13.15;7.07;;;;;;;22.57;57.58;100704.97;20863230;28;20530;-89
2022/12/26 13:34:07;;;;;;;14.40;7.65;;;;;;;22.58;58.03;100707.50;20883789;28;20033;-86
2022/12/26 13:44:20;;;;;;;15.85;9.05;;;;;;;22.59;58.24;100709.19;20838557;28;20072;-87
2022/12/26 13:54:23;;;;;;;16.25;9.02;;;;;;;22.59;58.16;100711.81;20868294;28;20056;-91
2022/12/26 14:04:27;;;;;;;18.70;8.38;;;;;;;22.63;59.15;100705.34;20870813;28;20045;-90
2022/12/26 14:14:59;;;;;;;17.35;8.43;;;;;;;22.61;58.19;100731.03;20874305;28;20049;-87
2022/12/26 14:25:43;;;;;;;15.20;8.02;;;;;;;22.59;58.34;100722.38;20870761;28;20148;-91
2022/12/26 14:36:30;;;;;;;17.58;8.25;;;;;;;22.59;57.92;100735.56;20842563;28;20037;-90
2022/12/26 14:46:31;;;;;;;17.70;8.30;;;;;;;22.55;57.41;100723.59;20799073;28;20053;-90
2022/12/26 14:56:35;;;;;;;20.27;8.30;;;;;;;22.58;58.08;100733.06;20860653;28;20056;-90
2022/12/26 15:07:12;;;;;;;20.77;11.43;;;;;;;22.51;55.20;100719.50;20855216;28;20040;-86
2022/12/26 15:18:03;;;;;;;19.90;9.90;;;;;;;22.55;55.91;100715.66;20855946;28;20136;-86
2022/12/26 15:28:54;;;;;;;24.30;10.18;;;;;;;22.59;55.26;100703.91;20855799;28;20045;-86
2022/12/26 15:39:25;;;;;;;17.52;10.07;;;;;;;22.62;55.82;100692.25;20844326;28;20964;-85
2022/12/26 15:50:02;;;;;;;16.57;9.73;;;;;;;22.64;55.74;100685.06;20823385;28;20403;-88
2022/12/26 16:00:23;;;;;;;19.10;9.63;;;;;;;22.64;55.91;100703.53;20866644;28;20041;-90
2022/12/26 16:10:23;;;;;;;24.65;9.48;;;;;;;22.67;56.65;100687.47;20899003;28;20048;-86
2022/12/26 16:30:43;;;;;;;14.73;8.63;;;;;;;22.75;56.61;100689.50;20867478;28;20065;-89
2022/12/26 16:40:47;;;;;;;13.17;8.13;;;;;;;22.70;56.44;100682.78;20861844;28;20179;-83
2022/12/26 16:50:55;;;;;;;18.02;8.75;;;;;;;22.68;56.34;100681.25;20844182;28;20293;-91
2022/12/26 17:01:14;;;;;;;17.73;8.93;;;;;;;22.74;57.13;100687.81;20855682;28;20660;-91
2022/12/26 17:11:16;;;;;;;19.25;8.70;;;;;;;22.77;57.20;100692.88;20866189;28;20033;-85
2022/12/26 17:21:32;;;;;;;19.47;9.27;;;;;;;22.76;57.14;100678.81;20852053;28;20049;-89
2022/12/26 17:31:40;;;;;;;24.65;9.85;;;;;;;22.76;57.36;100678.81;20911910;28;20065;-88
2022/12/26 17:41:50;;;;;;;16.10;9.57;;;;;;;22.73;56.99;100671.16;20875554;28;20100;-90
2022/12/26 17:51:52;;;;;;;17.60;9.02;;;;;;;22.70;56.79;100679.28;20892459;28;20051;-87
2022/12/26 18:01:53;;;;;;;20.43;9.80;;;;;;;22.68;56.47;100657.50;20890826;28;20071;-87
2022/12/26 18:11:54;;;;;;;17.13;9.50;;;;;;;22.66;56.59;100654.94;20864763;28;20033;-87
2022/12/26 18:21:54;;;;;;;17.17;9.70;;;;;;;22.61;56.46;100643.91;20865712;28;20048;-88
2022/12/26 18:31:55;;;;;;;14.93;9.40;;;;;;;22.62;56.21;100624.50;20886442;28;20043;-86
2022/12/26 18:41:56;;;;;;;16.33;9.38;;;;;;;22.62;55.88;100619.22;20903325;28;20720;-85
2022/12/26 18:51:56;;;;;;;17.45;9.93;;;;;;;22.59;55.91;100631.81;20899708;28;20032;-87
2022/12/26 19:01:57;;;;;;;21.25;9.88;;;;;;;22.58;56.04;100594.00;20883066;28;20404;-88
2022/12/26 19:11:59;;;;;;;16.03;10.33;;;;;;;22.57;55.63;100609.97;20915244;28;20067;-85
2022/12/26 19:21:59;;;;;;;18.17;9.87;;;;;;;22.57;55.99;100617.88;20879407;28;20304;-84
2022/12/26 19:32:00;;;;;;;17.80;10.35;;;;;;;22.57;56.49;100620.53;20854776;28;20041;-85
2022/12/26 19:42:00;;;;;;;15.10;9.60;;;;;;;22.48;55.69;100620.28;20849429;28;20041;-84
2022/12/26 19:52:01;;;;;;;15.43;9.60;;;;;;;22.43;55.71;100626.91;20891678;28;20166;-88
2022/12/26 20:02:02;;;;;;;18.10;11.80;;;;;;;22.27;53.90;100628.09;20865684;28;20354;-83
2022/12/26 20:12:02;;;;;;;17.73;11.07;;;;;;;22.25;54.13;100661.66;20721974;28;20041;-85
2022/12/26 20:22:04;;;;;;;20.95;10.75;;;;;;;22.26;54.68;100675.69;20857233;28;20041;-83
2022/12/26 20:32:06;;;;;;;19.38;10.90;;;;;;;22.23;55.06;100660.94;20848210;28;20503;-85
2022/12/26 20:42:07;;;;;;;14.83;10.43;;;;;;;22.21;55.08;100642.56;20824761;28;20056;-86
2022/12/26 20:52:07;;;;;;;18.00;9.95;;;;;;;22.18;55.05;100615.59;20850055;28;20041;-86
2022/12/26 21:02:10;;;;;;;16.10;9.85;;;;;;;22.15;55.29;100627.22;20842230;28;20049;-86
2022/12/26 21:12:11;;;;;;;13.70;9.70;;;;;;;22.12;55.25;100606.38;20833045;28;20095;-85
2022/12/26 21:22:11;;;;;;;13.75;9.05;;;;;;;22.10;55.14;100654.94;20840852;28;20075;-83
2022/12/26 21:32:12;;;;;;;12.75;8.57;;;;;;;22.05;55.18;100663.19;20849378;28;20163;-85
2022/12/26 21:42:12;;;;;;;12.38;8.88;;;;;;;22.00;55.50;100655.63;20834948;28;20459;-82
2022/12/26 21:52:13;;;;;;;13.88;8.90;;;;;;;21.98;55.60;100627.72;20850511;28;20056;-83
2022/12/26 22:22:54;;;;;;;12.50;8.75;;;;;;;21.88;55.23;100633.69;20841035;28;20104;-83
2022/12/26 22:32:54;;;;;;;10.07;7.47;;;;;;;21.87;55.61;100632.03;20839214;28;20079;-83
2022/12/26 22:42:55;;;;;;;11.73;7.65;;;;;;;21.85;55.42;100633.06;20821923;28;20282;-83
2022/12/26 22:52:55;;;;;;;14.07;7.97;;;;;;;21.83;55.44;100613.91;20828034;28;20088;-82
2022/12/26 23:02:55;;;;;;;11.07;7.97;;;;;;;21.81;55.77;100629.81;20838795;28;20041;-84
2022/12/26 23:12:56;;;;;;;10.07;7.25;;;;;;;21.79;55.84;100662.53;20847864;28;20144;-83
2022/12/26 23:22:57;;;;;;;10.25;7.60;;;;;;;21.79;55.46;100676.56;20848613;28;20067;-83
2022/12/26 23:32:59;;;;;;;10.30;7.30;;;;;;;21.75;55.60;100673.31;20843448;28;20040;-83
2022/12/26 23:43:00;;;;;;;9.70;7.38;;;;;;;21.74;55.60;100658.47;20845716;28;20045;-84
2022/12/26 23:53:01;;;;;;;11.25;7.40;;;;;;;21.72;55.52;100663.00;20840060;28;20037;-85
